Terminal Aerodrome Forecast
Issued by NWS

Home | Current Version | Previous Version | Text Only | Print | Product List | Glossary On
Versions: 1 2 3 4 5 6 7 8 9 10 11 12 13
000
FTUS45 KPSR 251728
TAFIPL
TAF
KIPL 251728Z 2518/2618 27015KT P6SM SKC
     FM252200 27019G27KT 6SM BLDU SKC
     FM260600 28011KT P6SM SKC=

USA.gov is the U.S. government's official web portal to all federal, state and local government web resources and services.